Time;durP1;ratioP1;P1;durP2;ratioP2;P2;SDS_P1;SDS_P2;PMS_P1;PMS_P2;Temp;Humidity;BMP_temperature;BMP_pressure;BME280_temperature;BME280_humidity;BME280_pressure;Samples;Min_cycle;Max_cycle;Signal;HPM_P1;HPM_P2
2021/12/17 00:00:59;;;;;;;;;7.50;5.75;;;;;8.32;100.00;103963.38;5019980;28;11316;-69
2021/12/17 00:03:49;;;;;;;;;11.25;8.75;;;;;8.31;100.00;103967.91;5011546;28;10014;-68
2021/12/17 00:06:41;;;;;;;;;8.50;8.00;;;;;8.33;100.00;103975.91;5011989;28;11002;-71
2021/12/17 00:09:09;;;;;;;;;13.00;11.00;;;;;8.32;100.00;103982.28;5010843;28;10206;-69
2021/12/17 00:11:41;;;;;;;;;17.25;16.00;;;;;8.28;100.00;103981.59;5012526;28;10372;-69
2021/12/17 00:14:24;;;;;;;;;14.50;13.25;;;;;8.29;100.00;103977.94;5011978;28;10622;-69
2021/12/17 00:16:53;;;;;;;;;20.00;14.00;;;;;8.33;100.00;103975.91;5010493;28;10528;-67
2021/12/17 00:44:18;;;;;;;;;14.00;12.75;;;;;8.31;100.00;103951.72;5008981;28;10045;-69
2021/12/17 00:49:35;;;;;;;;;16.50;10.25;;;;;8.31;100.00;103951.72;5010614;28;10153;-70
2021/12/17 00:52:03;;;;;;;;;14.00;12.50;;;;;8.31;100.00;103953.53;5009404;28;10204;-69
2021/12/17 00:54:40;;;;;;;;;13.00;11.25;;;;;8.31;100.00;103951.72;4990016;28;10279;-70
2021/12/17 00:57:16;;;;;;;;;16.00;13.50;;;;;8.31;100.00;103948.13;4990314;28;10932;-70
2021/12/17 00:59:47;;;;;;;;;12.75;10.25;;;;;8.29;100.00;103955.47;5014888;28;10324;-70
2021/12/17 01:02:17;;;;;;;;;18.75;13.00;;;;;8.29;100.00;103958.16;4991254;28;10103;-70
2021/12/17 01:04:49;;;;;;;;;14.50;13.00;;;;;8.29;100.00;103953.63;4993454;28;10381;-69
2021/12/17 01:07:21;;;;;;;;;13.00;10.75;;;;;8.35;100.00;103954.25;4998630;28;10280;-70
2021/12/17 01:09:51;;;;;;;;;16.25;14.25;;;;;8.35;100.00;103956.94;5008768;28;10402;-70
2021/12/17 01:12:20;;;;;;;;;17.00;16.00;;;;;8.31;100.00;103962.50;5009107;28;11006;-70
2021/12/17 01:15:08;;;;;;;;;13.75;13.75;;;;;8.28;100.00;103953.75;5008687;28;10519;-69
2021/12/17 01:17:50;;;;;;;;;14.25;11.00;;;;;8.27;100.00;103960.97;5005773;28;11346;-70
2021/12/17 01:35:28;;;;;;;;;21.50;13.00;;;;;8.29;100.00;103963.56;4978964;28;10357;-69
2021/12/17 01:43:40;;;;;;;;;12.50;10.00;;;;;8.27;100.00;103979.00;5006783;28;10407;-71
2021/12/17 01:46:09;;;;;;;;;16.75;16.50;;;;;8.30;100.00;103974.28;5016820;28;10338;-70
2021/12/17 01:48:55;;;;;;;;;12.25;8.75;;;;;8.33;100.00;103984.00;5003467;28;10445;-70
2021/12/17 01:59:20;;;;;;;;;10.25;9.50;;;;;8.40;100.00;103989.91;5007929;28;10163;-71
2021/12/17 01:59:47;;;;;;;;;16.25;9.00;;;;;8.36;100.00;103989.22;5002122;28;10319;-70
2021/12/17 02:02:17;;;;;;;;;12.00;11.50;;;;;8.38;100.00;103999.94;5011140;28;10189;-70
2021/12/17 02:04:44;;;;;;;;;19.00;11.50;;;;;8.27;100.00;104001.47;5003315;28;10336;-68
2021/12/17 02:07:12;;;;;;;;;17.50;13.00;;;;;8.21;100.00;104003.69;5022022;28;10346;-68
2021/12/17 02:31:27;;;;;;;;;21.00;15.50;;;;;7.87;100.00;103991.38;5009051;28;10940;-69
2021/12/17 02:34:02;;;;;;;;;16.75;13.00;;;;;7.95;100.00;103992.69;5022203;28;10569;-69
2021/12/17 02:36:32;;;;;;;;;9.00;8.25;;;;;7.97;100.00;103988.06;5013583;28;11191;-68
2021/12/17 02:39:24;;;;;;;;;9.00;8.00;;;;;7.94;100.00;103976.59;5008929;28;10352;-70
2021/12/17 02:47:25;;;;;;;;;15.50;10.00;;;;;7.87;100.00;103969.81;5010623;28;10528;-71
2021/12/17 02:49:52;;;;;;;;;19.00;14.75;;;;;7.82;100.00;103972.78;5010369;28;10349;-70
2021/12/17 02:52:25;;;;;;;;;10.75;8.50;;;;;7.87;100.00;103972.50;5031874;28;10486;-70
2021/12/17 02:54:52;;;;;;;;;13.50;10.50;;;;;7.89;100.00;103981.38;5012842;28;10330;-69
2021/12/17 02:57:19;;;;;;;;;11.75;10.50;;;;;7.90;100.00;103970.47;4996221;28;10378;-70
2021/12/17 02:59:46;;;;;;;;;9.50;7.75;;;;;7.84;100.00;103973.56;5011902;28;10425;-70
2021/12/17 03:02:13;;;;;;;;;11.75;11.75;;;;;7.88;100.00;103969.72;5028782;28;10290;-69
2021/12/17 03:04:41;;;;;;;;;7.75;4.75;;;;;7.92;100.00;103981.19;5023675;28;10358;-70
2021/12/17 03:07:13;;;;;;;;;7.75;7.75;;;;;7.93;100.00;103981.13;4993879;28;10307;-70
2021/12/17 03:12:32;;;;;;;;;4.50;2.50;;;;;7.94;100.00;103972.06;5011870;28;10298;-69
2021/12/17 03:15:46;;;;;;;;;7.00;7.00;;;;;7.88;100.00;103967.00;5018522;28;10240;-71
2021/12/17 03:18:33;;;;;;;;;6.75;6.25;;;;;7.92;100.00;103965.84;5015881;28;10288;-70
2021/12/17 03:23:43;;;;;;;;;8.50;4.75;;;;;7.90;100.00;103969.63;5015676;28;10101;-69
2021/12/17 03:26:17;;;;;;;;;7.00;5.25;;;;;7.85;100.00;103967.22;5011471;28;10133;-70
2021/12/17 03:28:46;;;;;;;;;2.75;1.75;;;;;7.83;100.00;103969.13;5019665;28;10386;-70
2021/12/17 03:31:14;;;;;;;;;9.00;5.25;;;;;7.84;100.00;103964.59;5015886;28;10102;-71
2021/12/17 03:33:43;;;;;;;;;7.50;6.00;;;;;7.85;100.00;103963.66;5012726;28;10165;-69
2021/12/17 03:36:14;;;;;;;;;7.50;7.00;;;;;7.88;100.00;103960.75;5020167;28;10219;-70
2021/12/17 03:38:43;;;;;;;;;4.00;3.00;;;;;7.86;100.00;103965.38;5014433;28;10396;-69
2021/12/17 03:43:55;;;;;;;;;5.00;3.00;;;;;7.87;100.00;103973.38;5020115;28;10027;-69
2021/12/17 03:46:26;;;;;;;;;7.00;4.50;;;;;7.90;100.00;103970.47;5017101;28;10252;-69
2021/12/17 03:48:54;;;;;;;;;4.75;3.50;;;;;7.87;100.00;103969.81;5019620;28;10118;-70
2021/12/17 03:51:21;;;;;;;;;2.75;2.75;;;;;7.87;100.00;103964.41;5019743;28;10110;-69
2021/12/17 03:53:56;;;;;;;;;1.00;1.00;;;;;7.86;100.00;103962.69;5035915;28;10011;-70
2021/12/17 03:56:26;;;;;;;;;1.50;1.50;;;;;7.83;100.00;103965.56;5027896;28;10209;-71
2021/12/17 03:58:55;;;;;;;;;5.50;2.00;;;;;7.84;100.00;103970.88;5016057;28;10011;-69
2021/12/17 04:01:22;;;;;;;;;5.00;3.25;;;;;7.88;100.00;103971.53;5005340;28;10007;-69
2021/12/17 04:03:49;;;;;;;;;5.00;3.00;;;;;7.86;100.00;103965.38;4998448;28;10020;-69
2021/12/17 04:06:25;;;;;;;;;1.75;1.50;;;;;7.83;100.00;103963.75;5017551;28;12363;-69
2021/12/17 04:09:04;;;;;;;;;5.25;3.00;;;;;7.88;100.00;103955.34;5018688;28;11472;-69
2021/12/17 04:11:47;;;;;;;;;1.75;1.75;;;;;7.88;100.00;103963.44;5012966;28;10094;-69
2021/12/17 04:14:40;;;;;;;;;4.00;4.00;;;;;7.86;100.00;103962.69;5013946;28;9970;-70
2021/12/17 04:17:07;;;;;;;;;1.75;1.75;;;;;7.87;100.00;103976.06;5016783;28;10028;-69
2021/12/17 04:20:02;;;;;;;;;11.50;4.50;;;;;7.87;100.00;103967.09;5019235;28;9846;-70
2021/12/17 04:22:29;;;;;;;;;4.75;1.00;;;;;7.87;100.00;103961.72;5021822;28;10105;-68
2021/12/17 04:24:56;;;;;;;;;4.25;1.50;;;;;7.94;100.00;103971.19;4985364;28;10072;-69
2021/12/17 04:27:23;;;;;;;;;4.00;3.75;;;;;7.91;100.00;103969.53;5007678;28;9937;-69
2021/12/17 04:29:51;;;;;;;;;2.00;2.00;;;;;7.88;100.00;103972.41;5012309;28;10148;-68
2021/12/17 04:32:18;;;;;;;;;3.00;3.00;;;;;7.91;100.00;103974.03;5007977;28;9958;-68
2021/12/17 04:34:46;;;;;;;;;3.00;3.00;;;;;7.92;100.00;103976.66;5000298;28;9954;-68
2021/12/17 04:37:13;;;;;;;;;1.50;1.50;;;;;7.93;100.00;103977.50;5007131;28;9985;-70
2021/12/17 04:39:50;;;;;;;;;6.00;4.00;;;;;7.92;100.00;103973.94;5012408;28;10046;-69
2021/12/17 04:42:28;;;;;;;;;6.00;3.50;;;;;7.91;100.00;103965.94;5029847;28;9912;-69
2021/12/17 04:44:57;;;;;;;;;3.50;3.00;;;;;7.94;100.00;103965.78;5009119;28;10050;-69
2021/12/17 04:58:33;;;;;;;;;3.75;3.25;;;;;7.89;100.00;103959.78;5026586;28;10125;-70
2021/12/17 05:01:03;;;;;;;;;5.50;2.00;;;;;7.93;100.00;103967.63;5013529;28;10206;-68
2021/12/17 05:03:30;;;;;;;;;3.25;2.25;;;;;7.92;100.00;103955.06;5027801;28;10117;-69
2021/12/17 05:05:57;;;;;;;;;6.75;6.25;;;;;7.92;100.00;103960.47;5007152;28;10115;-71
2021/12/17 05:08:34;;;;;;;;;3.00;1.75;;;;;7.93;100.00;103962.22;5023702;28;10111;-72
2021/12/17 05:11:27;;;;;;;;;4.25;2.00;;;;;7.95;100.00;103968.41;5010244;28;10056;-70
2021/12/17 05:19:46;;;;;;;;;3.00;2.00;;;;;7.99;100.00;103969.94;5004608;28;10096;-69
2021/12/17 05:22:13;;;;;;;;;2.00;2.00;;;;;7.98;100.00;103970.91;5007993;28;9919;-69
2021/12/17 05:24:41;;;;;;;;;3.00;3.00;;;;;7.99;100.00;103975.34;5005274;28;9985;-69
2021/12/17 05:27:09;;;;;;;;;2.25;2.25;;;;;8.00;100.00;103973.50;5008618;28;9947;-69
2021/12/17 05:29:45;;;;;;;;;4.00;1.00;;;;;7.98;100.00;103962.81;5015756;28;9856;-69
2021/12/17 05:32:11;;;;;;;;;4.00;4.00;;;;;7.99;100.00;103967.22;5015797;28;9862;-69
2021/12/17 05:34:38;;;;;;;;;1.00;1.00;;;;;8.02;100.00;103975.13;5013535;28;9866;-69
2021/12/17 05:37:08;;;;;;;;;3.50;2.00;;;;;8.07;100.00;103980.25;5017185;28;9921;-69
2021/12/17 05:39:34;;;;;;;;;4.50;1.00;;;;;8.05;100.00;103975.91;5030549;28;10044;-69
2021/12/17 05:42:03;;;;;;;;;5.25;2.25;;;;;8.04;100.00;103977.75;5007465;28;9803;-69
2021/12/17 05:44:35;;;;;;;;;2.00;2.00;;;;;8.03;100.00;103976.00;5018680;28;10046;-69
2021/12/17 05:47:03;;;;;;;;;1.50;1.50;;;;;8.04;100.00;103975.03;5003500;28;10011;-69
2021/12/17 05:49:31;;;;;;;;;2.25;2.25;;;;;8.05;100.00;103979.47;5012442;28;10704;-69
2021/12/17 05:52:02;;;;;;;;;2.25;2.25;;;;;8.06;100.00;103975.81;5013617;28;10144;-69
2021/12/17 05:54:30;;;;;;;;;4.00;2.00;;;;;8.08;100.00;103984.66;5012655;28;9869;-69
2021/12/17 05:56:58;;;;;;;;;4.00;2.00;;;;;8.06;100.00;103983.03;5011708;28;9713;-70
2021/12/17 05:59:33;;;;;;;;;3.25;1.75;;;;;8.07;100.00;103985.63;5032263;28;9829;-69
2021/12/17 06:02:03;;;;;;;;;4.50;4.50;;;;;8.07;100.00;103990.16;5017863;28;10057;-68
2021/12/17 06:04:31;;;;;;;;;2.00;2.00;;;;;8.06;100.00;103991.13;5020689;28;10131;-68
2021/12/17 06:07:04;;;;;;;;;2.00;2.00;;;;;8.08;100.00;103994.59;5018806;28;9958;-68
2021/12/17 06:09:32;;;;;;;;;2.25;2.25;;;;;8.07;100.00;103995.56;5019723;28;9908;-70
2021/12/17 06:12:03;;;;;;;;;2.00;2.00;;;;;8.04;100.00;103999.31;5026611;28;9922;-70
2021/12/17 06:14:30;;;;;;;;;6.00;4.50;;;;;8.10;100.00;103988.13;5016168;28;9837;-69
2021/12/17 06:16:57;;;;;;;;;7.00;4.00;;;;;8.11;100.00;103989.88;5017624;28;10014;-69
2021/12/17 06:19:32;;;;;;;;;4.00;4.00;;;;;8.10;100.00;103993.53;5033098;28;11433;-68
2021/12/17 06:21:59;;;;;;;;;6.25;5.00;;;;;8.09;100.00;103994.50;5017432;28;9941;-68
2021/12/17 06:24:27;;;;;;;;;2.75;2.75;;;;;8.09;100.00;104001.72;5005244;28;9950;-67
2021/12/17 06:26:56;;;;;;;;;2.00;2.00;;;;;8.11;100.00;104002.50;5009932;28;10157;-67
2021/12/17 06:29:24;;;;;;;;;4.75;3.00;;;;;8.14;100.00;103999.59;5001563;28;9857;-67
2021/12/17 06:31:58;;;;;;;;;6.50;6.00;;;;;8.08;100.00;103994.59;5012294;28;9865;-69
2021/12/17 06:34:25;;;;;;;;;1.25;1.25;;;;;8.11;100.00;103997.09;5004022;28;10172;-67
2021/12/17 06:36:51;;;;;;;;;2.25;1.50;;;;;8.12;100.00;103998.84;5015488;28;10048;-68
2021/12/17 06:39:18;;;;;;;;;2.50;2.50;;;;;8.14;100.00;104002.31;5020065;28;9921;-68
2021/12/17 06:41:44;;;;;;;;;2.50;2.50;;;;;8.13;100.00;104003.28;5015562;28;9957;-68
2021/12/17 06:44:14;;;;;;;;;2.00;2.00;;;;;8.19;100.00;104005.63;5013372;28;10090;-69
2021/12/17 06:47:02;;;;;;;;;2.00;2.00;;;;;8.14;100.00;103997.78;5035190;23;10264;-68
2021/12/17 06:55:51;;;;;;;;;1.50;1.50;;;;;8.11;100.00;104003.38;5010192;28;10612;-68
2021/12/17 06:58:58;;;;;;;;;0.75;0.75;;;;;8.12;100.00;104007.81;5011017;28;9686;-68
2021/12/17 07:08:52;;;;;;;;;6.00;3.25;;;;;8.12;100.00;104017.72;4969800;28;9950;-69
2021/12/17 07:10:48;;;;;;;;;3.50;3.50;;;;;8.13;100.00;104020.31;4992719;28;9942;-69
2021/12/17 07:28:09;;;;;;;;;3.50;3.50;;;;;8.10;100.00;104025.91;4993899;28;10900;-68
2021/12/17 07:33:20;;;;;;;;;7.75;7.75;;;;;8.09;100.00;104039.50;5008901;28;9978;-67
2021/12/17 07:36:09;;;;;;;;;10.00;8.00;;;;;8.20;100.00;104032.50;5010750;28;10133;-69
2021/12/17 07:38:47;;;;;;;;;7.50;5.00;;;;;8.09;100.00;104032.28;5009983;28;10090;-68
2021/12/17 07:41:33;;;;;;;;;7.75;2.50;;;;;8.04;100.00;104039.78;5004298;28;10773;-70
2021/12/17 07:44:13;;;;;;;;;3.50;3.50;;;;;8.05;100.00;104030.75;5002850;28;10056;-71
2021/12/17 07:46:54;;;;;;;;;9.00;6.25;;;;;8.05;100.00;104037.97;5003816;28;10170;-68
2021/12/17 07:49:21;;;;;;;;;3.50;3.50;;;;;8.07;100.00;104034.22;5000825;28;10176;-68
2021/12/17 07:51:47;;;;;;;;;2.00;2.00;;;;;8.08;100.00;104046.72;4976662;28;9935;-69
2021/12/17 07:54:18;;;;;;;;;3.75;3.75;;;;;8.07;100.00;104041.44;5008579;28;10113;-69
2021/12/17 07:56:45;;;;;;;;;5.75;5.75;;;;;8.06;100.00;104034.31;4991101;28;10036;-68
2021/12/17 07:59:19;;;;;;;;;7.00;2.00;;;;;8.07;100.00;104042.31;4987336;28;10708;-68
2021/12/17 08:01:46;;;;;;;;;6.75;3.00;;;;;8.11;100.00;104034.88;4970460;28;10105;-68
2021/12/17 08:04:15;;;;;;;;;4.50;3.50;;;;;8.10;100.00;104035.84;4973037;28;10081;-69
2021/12/17 08:06:51;;;;;;;;;1.00;1.00;;;;;8.09;100.00;104045.78;4973900;28;10057;-68
2021/12/17 08:09:22;;;;;;;;;3.00;2.00;;;;;8.14;100.00;104035.56;5002659;28;9837;-68
2021/12/17 08:11:56;;;;;;;;;5.00;5.00;;;;;8.11;100.00;104034.88;4971652;28;10061;-71
2021/12/17 08:14:28;;;;;;;;;1.00;1.00;;;;;8.15;100.00;104031.91;5005118;28;10009;-68
2021/12/17 08:25:13;;;;;;;;;2.00;2.00;;;;;8.19;100.00;104038.88;4976307;28;10933;-70
2021/12/17 08:28:02;;;;;;;;;3.00;3.00;;;;;8.19;100.00;104038.88;4986306;28;9769;-69
2021/12/17 08:30:38;;;;;;;;;4.25;4.25;;;;;8.19;100.00;104038.88;4990808;28;9937;-69
2021/12/17 08:33:19;;;;;;;;;6.50;4.00;;;;;8.19;100.00;104029.91;4996794;28;10061;-69
2021/12/17 08:35:48;;;;;;;;;2.75;2.75;;;;;8.20;100.00;104037.91;5006357;28;9973;-70
2021/12/17 08:38:20;;;;;;;;;2.25;2.25;;;;;8.21;100.00;104045.03;4995737;28;10783;-73
2021/12/17 08:40:49;;;;;;;;;2.00;2.00;;;;;8.25;100.00;104040.31;5003480;28;9972;-72
2021/12/17 08:43:17;;;;;;;;;4.00;4.00;;;;;8.21;100.00;104050.44;4991798;28;9856;-69
2021/12/17 08:45:48;;;;;;;;;10.25;5.25;;;;;8.17;100.00;104048.84;5007597;28;9861;-72
2021/12/17 08:48:46;;;;;;;;;4.25;4.25;;;;;8.05;100.00;104059.56;5007751;28;10032;-70
2021/12/17 08:51:29;;;;;;;;;6.50;6.00;;;;;8.17;100.00;104061.47;4992783;28;10145;-69
2021/12/17 08:53:55;;;;;;;;;5.00;5.00;;;;;8.20;100.00;104062.19;4988656;28;10816;-71
2021/12/17 08:56:28;;;;;;;;;1.50;1.50;;;;;8.18;100.00;104063.22;4985658;28;10107;-70
2021/12/17 08:58:55;;;;;;;;;6.25;3.25;;;;;8.19;100.00;104056.88;4987416;28;10028;-70
2021/12/17 09:01:28;;;;;;;;;5.25;4.25;;;;;8.15;100.00;104055.31;4987580;28;10080;-70
2021/12/17 09:03:54;;;;;;;;;4.00;1.50;;;;;8.16;100.00;104054.34;4987674;28;9889;-71
2021/12/17 09:06:35;;;;;;;;;5.75;3.25;;;;;8.21;100.00;104055.81;4989687;28;10047;-72
2021/12/17 09:09:03;;;;;;;;;3.00;3.00;;;;;8.24;100.00;104058.34;5001170;28;9925;-70
2021/12/17 09:11:33;;;;;;;;;2.50;2.00;;;;;8.21;100.00;104058.53;5002738;28;10041;-71
2021/12/17 09:14:09;;;;;;;;;4.50;3.00;;;;;8.29;100.00;104055.34;4972230;28;10023;-71
2021/12/17 09:16:47;;;;;;;;;3.50;1.50;;;;;8.27;100.00;104054.56;4986047;28;9974;-69
2021/12/17 09:19:16;;;;;;;;;2.25;2.00;;;;;8.30;100.00;104062.47;5002943;28;9827;-71
2021/12/17 09:21:49;;;;;;;;;1.50;1.50;;;;;8.29;100.00;104069.72;4999839;28;9865;-71
2021/12/17 09:24:42;;;;;;;;;2.00;2.00;;;;;8.31;100.00;104056.13;5001275;28;9785;-70
2021/12/17 09:27:19;;;;;;;;;3.00;3.00;;;;;8.25;100.00;104062.78;5005142;28;10666;-70
2021/12/17 09:30:15;;;;;;;;;4.25;3.00;;;;;8.27;100.00;104060.84;4974175;28;9909;-70
2021/12/17 09:32:43;;;;;;;;;7.25;2.00;;;;;8.30;100.00;104066.03;5004466;28;9793;-70
2021/12/17 09:35:14;;;;;;;;;0.00;0.00;;;;;8.28;100.00;104062.56;4985767;28;9854;-69
2021/12/17 09:37:41;;;;;;;;;1.00;1.00;;;;;8.30;100.00;104070.56;5001370;28;9780;-69
2021/12/17 09:40:10;;;;;;;;;1.00;1.00;;;;;8.24;100.00;104074.53;4984735;28;9876;-69
2021/12/17 09:42:38;;;;;;;;;3.00;2.00;;;;;8.22;100.00;104072.88;5002386;28;9854;-68
2021/12/17 09:45:06;;;;;;;;;3.00;3.00;;;;;8.24;100.00;104085.31;5002148;28;9992;-70
2021/12/17 09:47:32;;;;;;;;;2.00;2.00;;;;;8.17;100.00;104086.63;4984440;28;10025;-70
2021/12/17 09:49:59;;;;;;;;;3.25;3.25;;;;;8.23;100.00;104088.13;4999890;28;9841;-69
2021/12/17 09:52:26;;;;;;;;;2.00;2.00;;;;;8.28;100.00;104086.88;5002427;28;9945;-69
2021/12/17 09:54:57;;;;;;;;;1.00;0.75;;;;;8.20;100.00;104102.69;4985030;28;10621;-70
2021/12/17 09:57:25;;;;;;;;;3.75;2.00;;;;;8.19;100.00;104108.16;4985017;28;9859;-69
2021/12/17 09:59:53;;;;;;;;;4.25;2.00;;;;;8.07;100.00;104115.16;5000277;28;10004;-69
2021/12/17 10:02:20;;;;;;;;;2.25;2.25;;;;;8.06;100.00;104117.94;4982009;28;10097;-70
2021/12/17 10:04:47;;;;;;;;;5.00;5.00;;;;;7.96;100.00;104128.44;5005732;28;9922;-71
2021/12/17 10:07:21;;;;;;;;;2.25;2.00;;;;;7.99;100.00;104129.13;5001610;28;10292;-70
2021/12/17 10:09:53;;;;;;;;;7.00;3.00;;;;;7.95;100.00;104132.97;5000074;28;10008;-71
2021/12/17 10:12:31;;;;;;;;;7.00;3.50;;;;;8.00;100.00;104119.19;4984815;28;9996;-69
2021/12/17 10:15:07;;;;;;;;;1.75;1.75;;;;;7.95;100.00;104114.06;4984469;28;9997;-70
2021/12/17 10:17:51;;;;;;;;;5.25;3.00;;;;;8.03;100.00;104121.69;4984319;28;9859;-70
2021/12/17 10:20:19;;;;;;;;;4.00;4.00;;;;;8.08;100.00;104116.91;4984896;28;10102;-70
2021/12/17 10:22:53;;;;;;;;;5.75;3.00;;;;;8.10;100.00;104120.38;5002462;28;11064;-69
2021/12/17 10:25:21;;;;;;;;;3.00;3.00;;;;;8.14;100.00;104129.13;5002049;28;10159;-69
2021/12/17 10:27:48;;;;;;;;;3.50;3.50;;;;;8.07;100.00;104123.25;4984727;28;10084;-70
2021/12/17 10:30:22;;;;;;;;;3.00;3.00;;;;;8.09;100.00;104118.63;5002410;28;10218;-70
2021/12/17 10:32:51;;;;;;;;;3.25;3.25;;;;;8.14;100.00;104110.25;4985698;28;9856;-70
2021/12/17 10:35:21;;;;;;;;;4.50;3.00;;;;;8.18;100.00;104119.91;5001324;28;9939;-70
2021/12/17 10:37:57;;;;;;;;;5.00;3.00;;;;;8.20;100.00;104104.50;4983914;28;9985;-69
2021/12/17 10:40:42;;;;;;;;;4.50;2.50;;;;;8.14;100.00;104104.84;5001796;28;10703;-69
2021/12/17 10:43:26;;;;;;;;;4.00;4.00;;;;;8.08;100.00;104118.72;5000621;28;9989;-69
2021/12/17 10:48:30;;;;;;;;;6.75;5.00;;;;;8.06;100.00;104108.03;5002218;28;10159;-69
2021/12/17 10:51:14;;;;;;;;;5.75;5.75;;;;;7.94;100.00;104112.34;4987660;28;10335;-69
2021/12/17 10:53:56;;;;;;;;;3.50;2.25;;;;;8.04;100.00;104107.25;4984470;28;10376;-70
2021/12/17 10:56:32;;;;;;;;;1.50;1.50;;;;;8.26;100.00;104104.13;5003953;28;10316;-69
2021/12/17 10:59:13;;;;;;;;;3.50;1.75;;;;;8.22;100.00;104099.88;4987291;28;9978;-70
2021/12/17 11:01:53;;;;;;;;;5.00;1.75;;;;;8.23;100.00;104096.22;5005736;28;10012;-68
2021/12/17 11:04:51;;;;;;;;;2.00;2.00;;;;;8.18;100.00;104096.50;5004914;28;9935;-69
2021/12/17 11:07:19;;;;;;;;;6.00;4.00;;;;;8.29;100.00;104091.31;4984154;28;9950;-69
2021/12/17 11:09:57;;;;;;;;;1.00;1.00;;;;;8.21;100.00;104093.63;5006479;28;10238;-69
2021/12/17 11:12:30;;;;;;;;;1.75;1.75;;;;;8.28;100.00;104094.97;5003166;28;9810;-69
2021/12/17 11:15:07;;;;;;;;;2.50;2.00;;;;;8.36;100.00;104102.63;5006965;28;9999;-68
2021/12/17 11:17:34;;;;;;;;;1.00;1.00;;;;;8.39;100.00;104097.03;5009868;28;9753;-69
2021/12/17 11:20:14;;;;;;;;;1.00;0.00;;;;;8.43;100.00;104095.91;4993037;28;9754;-68
2021/12/17 11:22:44;;;;;;;;;0.50;0.00;;;;;8.41;100.00;104095.09;5008992;28;9766;-69
2021/12/17 11:25:12;;;;;;;;;1.00;0.00;;;;;8.43;100.00;104092.34;5009569;28;11033;-69
2021/12/17 11:27:39;;;;;;;;;1.25;0.00;;;;;8.41;100.00;104087.00;5005265;28;9742;-69
2021/12/17 11:30:09;;;;;;;;;0.00;0.00;;;;;8.54;100.00;104084.41;5003205;28;9765;-68
2021/12/17 11:32:36;;;;;;;;;0.00;0.00;;;;;8.55;100.00;104095.13;5002490;28;9855;-68
2021/12/17 11:35:04;;;;;;;;;0.00;0.00;;;;;8.60;100.00;104093.00;4987482;28;10501;-68
2021/12/17 11:37:31;;;;;;;;;0.00;0.00;;;;;8.60;100.00;104092.13;4987589;28;9846;-68
2021/12/17 11:40:03;;;;;;;;;0.00;0.00;;;;;8.83;100.00;104099.66;4987398;28;9995;-69
2021/12/17 11:43:13;;;;;;;;;0.00;0.00;;;;;8.61;100.00;104100.13;5004042;28;9949;-70
2021/12/17 11:45:41;;;;;;;;;0.00;0.00;;;;;8.62;100.00;104101.00;4987929;28;9856;-69
2021/12/17 11:48:12;;;;;;;;;0.00;0.00;;;;;8.51;99.48;104092.72;5002817;28;9803;-70
2021/12/17 11:50:41;;;;;;;;;0.00;0.00;;;;;8.54;99.76;104106.03;5003140;28;9757;-69
2021/12/17 11:53:18;;;;;;;;;1.25;1.00;;;;;8.49;99.22;104100.03;4987119;28;9663;-69
2021/12/17 11:55:47;;;;;;;;;0.00;0.00;;;;;8.43;99.23;104103.13;5004115;28;9844;-69
2021/12/17 11:58:34;;;;;;;;;0.00;0.00;;;;;8.51;99.57;104098.97;4986508;28;10485;-68
2021/12/17 12:01:01;;;;;;;;;0.00;0.00;;;;;8.51;99.01;104098.13;5004886;28;10855;-68
2021/12/17 12:03:28;;;;;;;;;0.00;0.00;;;;;8.53;98.95;104101.59;5006226;28;9760;-69
2021/12/17 12:05:56;;;;;;;;;0.00;0.00;;;;;8.39;98.53;104097.03;4977966;28;9771;-68
2021/12/17 12:08:39;;;;;;;;;1.00;1.00;;;;;8.42;99.51;104102.22;5008148;28;9740;-71
2021/12/17 12:11:11;;;;;;;;;0.00;0.00;;;;;8.46;99.41;104095.72;5007792;28;9913;-69
2021/12/17 12:13:38;;;;;;;;;0.00;0.00;;;;;8.54;99.62;104101.50;5008668;28;9954;-68
2021/12/17 12:16:06;;;;;;;;;1.00;1.00;;;;;8.52;99.39;104105.25;5007271;28;10552;-69
2021/12/17 12:18:47;;;;;;;;;0.00;0.00;;;;;8.46;99.23;104103.81;4975435;28;9911;-68
2021/12/17 12:21:16;;;;;;;;;1.00;1.00;;;;;8.48;99.13;104101.88;5009315;28;9964;-69
2021/12/17 12:23:45;;;;;;;;;1.00;1.00;;;;;8.53;99.81;104107.00;4994316;28;9810;-68
2021/12/17 12:26:22;;;;;;;;;1.25;1.25;;;;;8.58;99.75;104104.88;5008393;28;9857;-68
2021/12/17 12:28:59;;;;;;;;;1.00;1.00;;;;;8.50;99.63;104099.94;5007331;28;9955;-69
2021/12/17 12:31:33;;;;;;;;;0.00;0.00;;;;;8.62;100.00;104096.47;5010224;28;10208;-68
2021/12/17 12:34:06;;;;;;;;;1.00;1.00;;;;;8.67;100.00;104095.31;5007615;28;9911;-69
2021/12/17 12:37:00;;;;;;;;;2.00;0.75;;;;;8.72;100.00;104093.22;5006598;28;9802;-68
2021/12/17 12:39:56;;;;;;;;;1.50;1.50;;;;;8.71;100.00;104091.47;4991784;28;9746;-68
2021/12/17 12:42:35;;;;;;;;;1.00;1.00;;;;;8.63;99.96;104091.94;5005907;28;9937;-68
2021/12/17 12:45:07;;;;;;;;;0.75;0.75;;;;;8.68;100.00;104092.53;5006289;28;9811;-68
2021/12/17 12:47:38;;;;;;;;;1.25;1.25;;;;;8.72;100.00;104091.38;5007854;28;9680;-71
2021/12/17 12:50:11;;;;;;;;;2.00;0.75;;;;;8.72;99.71;104079.69;5007469;28;9830;-69
2021/12/17 12:52:53;;;;;;;;;0.00;0.00;;;;;8.73;100.00;104074.19;5008247;28;9592;-69
2021/12/17 12:55:35;;;;;;;;;1.00;1.00;;;;;8.71;99.62;104081.53;4989454;28;9693;-69
2021/12/17 12:58:24;;;;;;;;;1.00;1.00;;;;;8.67;99.56;104079.97;4987722;28;10035;-71
2021/12/17 13:00:55;;;;;;;;;1.00;1.00;;;;;8.63;99.33;104084.69;5005849;28;9761;-69
2021/12/17 13:03:28;;;;;;;;;0.75;0.50;;;;;8.64;99.03;104080.16;5002975;28;9667;-69
2021/12/17 13:05:57;;;;;;;;;1.00;1.00;;;;;8.64;99.09;104074.75;5004228;28;9682;-69
2021/12/17 13:08:23;;;;;;;;;2.00;2.00;;;;;8.64;99.28;104074.75;5000621;28;9779;-70
2021/12/17 13:10:51;;;;;;;;;5.00;4.00;;;;;8.55;99.11;104081.63;5003208;28;9748;-69
2021/12/17 13:21:36;;;;;;;;;1.00;1.00;;;;;8.53;99.71;104079.97;5003142;28;9903;-70
2021/12/17 13:24:25;;;;;;;;;1.00;1.00;;;;;8.61;100.00;104081.22;4985020;28;9972;-69
2021/12/17 13:26:57;;;;;;;;;1.25;1.00;;;;;8.61;100.00;104077.66;5004181;28;10467;-68
2021/12/17 13:29:33;;;;;;;;;6.00;1.75;;;;;8.62;100.00;104080.25;5002723;28;9832;-69
2021/12/17 13:32:03;;;;;;;;;1.00;0.00;;;;;8.64;100.00;104074.75;5001244;28;9963;-69
2021/12/17 13:34:34;;;;;;;;;2.75;1.25;;;;;8.66;100.00;104078.22;5003091;28;9906;-68
2021/12/17 13:37:06;;;;;;;;;3.50;3.50;;;;;8.59;100.00;104068.78;5002879;28;10644;-70
2021/12/17 13:39:56;;;;;;;;;2.00;1.00;;;;;8.62;100.00;104071.28;4969567;28;9947;-70
2021/12/17 13:42:25;;;;;;;;;5.50;1.00;;;;;8.68;100.00;104078.16;4975363;28;9694;-70
2021/12/17 13:45:00;;;;;;;;;1.00;1.00;;;;;8.65;100.00;104076.50;5002032;28;9734;-68
2021/12/17 13:47:33;;;;;;;;;3.00;1.00;;;;;8.66;100.00;104077.38;5000086;28;9752;-70
2021/12/17 13:50:26;;;;;;;;;1.00;1.00;;;;;8.66;100.00;104075.53;5002366;28;9946;-69
2021/12/17 13:52:55;;;;;;;;;1.00;1.00;;;;;8.64;100.00;104070.22;5001572;28;9915;-70
2021/12/17 13:55:25;;;;;;;;;1.75;1.00;;;;;8.58;100.00;104070.63;5004328;28;9891;-69
2021/12/17 13:57:52;;;;;;;;;1.00;1.00;;;;;8.60;100.00;104071.38;4999659;28;10058;-70
2021/12/17 14:00:34;;;;;;;;;2.00;1.00;;;;;8.64;100.00;104072.94;4983755;28;9845;-70
2021/12/17 14:03:02;;;;;;;;;1.00;1.00;;;;;8.63;100.00;104079.28;5000546;28;9761;-68
2021/12/17 14:05:40;;;;;;;;;3.25;1.75;;;;;8.58;100.00;104076.03;5003659;28;10001;-69
2021/12/17 14:08:10;;;;;;;;;3.75;3.00;;;;;8.58;100.00;104073.31;5002200;28;9773;-69
2021/12/17 14:10:37;;;;;;;;;1.00;1.00;;;;;8.59;100.00;104076.88;5003149;28;10178;-70
2021/12/17 14:13:14;;;;;;;;;3.00;2.00;;;;;8.62;100.00;104068.59;4984559;28;10619;-68
2021/12/17 14:16:02;;;;;;;;;1.00;1.00;;;;;8.61;100.00;104074.97;4997469;28;9999;-70
2021/12/17 14:18:28;;;;;;;;;1.75;1.75;;;;;8.67;100.00;104068.28;5002067;28;10724;-69
2021/12/17 14:20:59;;;;;;;;;2.00;0.00;;;;;8.66;100.00;104064.72;5001676;28;9951;-69
2021/12/17 14:23:28;;;;;;;;;1.00;1.00;;;;;8.67;100.00;104061.06;5002110;28;9713;-69
2021/12/17 14:25:55;;;;;;;;;3.00;2.00;;;;;8.70;100.00;104052.78;5003116;28;9784;-69
2021/12/17 14:28:25;;;;;;;;;2.75;2.75;;;;;8.72;100.00;104050.84;4984766;28;9960;-69
2021/12/17 14:31:05;;;;;;;;;2.75;2.25;;;;;8.67;100.00;104055.66;4985951;28;9959;-68